Time;durP1;ratioP1;P1;durP2;ratioP2;P2;SDS_P1;SDS_P2;PMS_P1;PMS_P2;Temp;Humidity;BMP_temperature;BMP_pressure;BME280_temperature;BME280_humidity;BME280_pressure;Samples;Min_cycle;Max_cycle;Signal;HPM_P1;HPM_P2
2023/04/16 00:01:02;;;;;;;0.63;0.63;;;;;;;14.13;100.00;99691.78;5050834;28;20578;-78
2023/04/16 00:03:29;;;;;;;0.70;0.70;;;;;;;14.10;100.00;99688.34;5032332;28;20210;-78
2023/04/16 00:05:56;;;;;;;0.60;0.60;;;;;;;13.98;100.00;99675.38;5051891;28;20211;-78
2023/04/16 00:08:24;;;;;;;0.60;0.60;;;;;;;14.08;100.00;99693.56;5051971;28;20207;-77
2023/04/16 00:10:51;;;;;;;0.60;0.60;;;;;;;14.03;100.00;99681.41;5051767;28;20722;-77
2023/04/16 00:13:17;;;;;;;0.63;0.63;;;;;;;13.95;100.00;99683.22;5032935;28;20214;-79
2023/04/16 00:15:46;;;;;;;0.70;0.70;;;;;;;13.87;100.00;99670.22;5016735;28;20205;-79
2023/04/16 00:18:12;;;;;;;0.70;0.70;;;;;;;13.87;100.00;99691.06;5050345;28;20246;-78
2023/04/16 00:20:39;;;;;;;0.70;0.70;;;;;;;13.88;100.00;99691.06;5042949;28;20630;-79
2023/04/16 00:23:06;;;;;;;0.70;0.70;;;;;;;13.86;100.00;99681.50;5052236;28;20206;-76
2023/04/16 00:25:33;;;;;;;0.60;0.60;;;;;;;13.79;100.00;99670.25;5050743;28;20341;-76
2023/04/16 00:27:59;;;;;;;0.60;0.60;;;;;;;13.79;100.00;99672.00;5050785;28;20212;-76
2023/04/16 00:30:26;;;;;;;0.70;0.70;;;;;;;13.87;100.00;99683.25;5050534;28;20195;-76
2023/04/16 00:32:54;;;;;;;0.60;0.60;;;;;;;13.82;100.00;99690.22;5050553;28;20199;-75
2023/04/16 00:35:21;;;;;;;0.60;0.60;;;;;;;13.61;100.00;99656.44;5050898;28;20595;-75
2023/04/16 00:37:48;;;;;;;0.70;0.70;;;;;;;13.76;100.00;99690.25;5050712;28;20199;-75
2023/04/16 00:40:15;;;;;;;0.60;0.60;;;;;;;13.72;100.00;99686.78;5050813;28;20203;-75
2023/04/16 00:42:41;;;;;;;1.35;1.25;;;;;;;13.59;100.00;99659.03;5015930;28;20204;-76
2023/04/16 00:45:10;;;;;;;0.60;0.60;;;;;;;13.77;100.00;99689.34;5012021;28;20208;-77
2023/04/16 00:47:37;;;;;;;0.80;0.80;;;;;;;13.68;100.00;99671.16;5051178;28;20241;-75
2023/04/16 00:50:07;;;;;;;0.60;0.60;;;;;;;13.75;100.00;99672.88;5015549;28;20269;-76
2023/04/16 00:52:34;;;;;;;0.60;0.60;;;;;;;13.78;100.00;99691.09;5050587;28;20215;-77
2023/04/16 00:55:01;;;;;;;0.60;0.60;;;;;;;13.55;100.00;99666.91;5050542;28;20202;-74
2023/04/16 00:57:28;;;;;;;0.93;0.93;;;;;;;13.66;100.00;99685.97;5000953;28;20204;-75
2023/04/16 00:59:56;;;;;;;0.70;0.70;;;;;;;13.68;100.00;99682.47;5037465;28;20220;-76
2023/04/16 01:02:23;;;;;;;0.60;0.60;;;;;;;13.65;100.00;99686.81;5050490;28;20196;-75
2023/04/16 01:04:50;;;;;;;0.60;0.60;;;;;;;13.62;100.00;99692.91;5050671;28;20196;-75
2023/04/16 01:07:18;;;;;;;0.60;0.60;;;;;;;13.63;100.00;99678.13;5048943;28;20713;-76
2023/04/16 01:09:45;;;;;;;0.60;0.60;;;;;;;13.60;100.00;99688.56;5049341;28;20203;-76
2023/04/16 01:12:12;;;;;;;0.70;0.70;;;;;;;13.56;100.00;99681.63;5049269;28;20425;-75
2023/04/16 01:14:38;;;;;;;0.70;0.70;;;;;;;13.48;100.00;99679.06;5050687;28;20214;-76
2023/04/16 01:17:05;;;;;;;0.60;0.60;;;;;;;13.49;100.00;99677.31;5049766;28;20207;-75
2023/04/16 01:19:35;;;;;;;0.70;0.70;;;;;;;13.47;100.00;99679.06;5048449;28;20231;-77
2023/04/16 01:22:03;;;;;;;0.80;0.80;;;;;;;13.49;100.00;99677.31;5050271;28;20541;-76
2023/04/16 01:24:30;;;;;;;0.60;0.60;;;;;;;13.40;100.00;99673.88;5050765;28;20206;-77
2023/04/16 01:26:57;;;;;;;0.52;0.52;;;;;;;13.39;100.00;99669.53;5051278;28;20203;-78
2023/04/16 01:29:24;;;;;;;0.60;0.60;;;;;;;13.34;100.00;99658.25;5018986;28;20203;-76
2023/04/16 01:31:51;;;;;;;0.60;0.60;;;;;;;13.30;100.00;99646.16;5056034;28;20191;-78
2023/04/16 01:34:18;;;;;;;0.60;0.60;;;;;;;13.36;100.00;99661.75;5057665;28;20204;-78
2023/04/16 01:36:45;;;;;;;0.60;0.60;;;;;;;13.50;100.00;99684.25;5039351;28;20609;-77
2023/04/16 01:39:15;;;;;;;0.60;0.60;;;;;;;13.62;100.00;99679.03;5057217;28;20277;-77
2023/04/16 01:41:42;;;;;;;0.60;0.60;;;;;;;13.53;100.00;99668.63;5050329;28;20207;-77
2023/04/16 01:44:09;;;;;;;0.60;0.60;;;;;;;13.59;100.00;99684.25;5049725;28;20199;-78
2023/04/16 01:46:36;;;;;;;0.60;0.60;;;;;;;13.50;100.00;99648.66;5050323;28;20264;-77
2023/04/16 01:49:02;;;;;;;0.60;0.60;;;;;;;13.25;100.00;99601.03;5050226;28;20199;-77
2023/04/16 01:51:30;;;;;;;0.70;0.70;;;;;;;13.68;100.00;99679.00;5015767;28;20199;-77
2023/04/16 01:53:57;;;;;;;0.60;0.60;;;;;;;13.66;100.00;99675.53;5049798;28;20209;-76
2023/04/16 01:56:25;;;;;;;0.60;0.60;;;;;;;13.78;100.00;99672.84;5049929;28;20211;-77
2023/04/16 01:58:53;;;;;;;0.60;0.60;;;;;;;13.78;100.00;99678.06;5050191;28;20693;-77
2023/04/16 02:01:19;;;;;;;0.60;0.60;;;;;;;13.70;100.00;99675.50;5050036;28;20195;-78
2023/04/16 02:03:47;;;;;;;0.60;0.60;;;;;;;13.66;100.00;99683.34;5015493;28;20203;-76
2023/04/16 02:06:13;;;;;;;0.55;0.55;;;;;;;13.62;100.00;99679.03;5050793;28;20195;-76
2023/04/16 02:08:41;;;;;;;0.65;0.65;;;;;;;13.62;100.00;99679.03;5050600;28;20210;-78
2023/04/16 02:11:07;;;;;;;0.95;0.95;;;;;;;13.56;100.00;99659.06;5048603;28;20235;-77
2023/04/16 02:13:36;;;;;;;0.50;0.50;;;;;;;13.74;100.00;99678.94;5050692;28;20199;-77
2023/04/16 02:16:02;;;;;;;0.80;0.80;;;;;;;13.59;100.00;99666.84;5011386;28;20265;-77
2023/04/16 02:18:29;;;;;;;0.50;0.50;;;;;;;13.72;100.00;99675.50;5036573;28;20219;-76
2023/04/16 02:20:58;;;;;;;0.60;0.60;;;;;;;13.76;100.00;99677.22;5049415;28;20266;-78
2023/04/16 02:23:25;;;;;;;0.60;0.60;;;;;;;13.65;100.00;99679.00;5015813;28;20294;-77
2023/04/16 02:25:52;;;;;;;0.70;0.70;;;;;;;13.62;100.00;99671.22;5049944;28;20203;-76
2023/04/16 02:28:19;;;;;;;0.60;0.60;;;;;;;13.56;100.00;99668.59;5050389;28;20199;-77
2023/04/16 02:30:47;;;;;;;0.70;0.70;;;;;;;13.57;100.00;99667.75;5047967;28;20206;-76
2023/04/16 02:33:14;;;;;;;0.60;0.60;;;;;;;13.50;100.00;99650.41;5030782;28;20330;-78
2023/04/16 02:35:41;;;;;;;0.57;0.57;;;;;;;13.62;100.00;99658.19;5045525;28;20221;-78
2023/04/16 02:38:08;;;;;;;0.70;0.70;;;;;;;13.50;100.00;99648.66;5050374;28;20210;-76
2023/04/16 02:40:35;;;;;;;0.60;0.60;;;;;;;13.63;100.00;99665.09;5052919;28;20203;-77
2023/04/16 02:43:02;;;;;;;0.60;0.60;;;;;;;13.65;100.00;99659.03;5053920;28;20206;-78
2023/04/16 02:45:30;;;;;;;0.60;0.60;;;;;;;13.61;100.00;99648.63;5051402;28;20972;-78
2023/04/16 02:47:59;;;;;;;0.80;0.80;;;;;;;13.68;100.00;99660.75;5054158;28;20286;-78
2023/04/16 02:50:26;;;;;;;0.60;0.60;;;;;;;13.60;100.00;99655.56;5053657;28;20346;-78
2023/04/16 02:52:53;;;;;;;0.60;0.60;;;;;;;13.44;100.00;99642.63;5019090;28;20206;-78
2023/04/16 02:55:20;;;;;;;0.70;0.70;;;;;;;13.51;100.00;99655.63;5053043;28;20215;-78
2023/04/16 02:57:46;;;;;;;0.80;0.80;;;;;;;13.36;100.00;99661.75;5053762;28;20211;-76
2023/04/16 03:00:13;;;;;;;0.70;0.70;;;;;;;13.14;100.00;99641.84;5053808;28;20288;-79
2023/04/16 03:02:41;;;;;;;0.70;0.70;;;;;;;13.18;100.00;99656.59;5018828;28;20281;-78
2023/04/16 03:05:10;;;;;;;0.90;0.90;;;;;;;13.02;100.00;99654.81;5053665;28;20211;-78
2023/04/16 03:07:40;;;;;;;0.70;0.70;;;;;;;12.87;100.00;99657.47;5053628;28;20199;-78
2023/04/16 03:10:08;;;;;;;0.70;0.70;;;;;;;12.75;100.00;99652.28;5052254;28;20302;-79
2023/04/16 03:12:35;;;;;;;0.70;0.70;;;;;;;12.52;100.00;99644.47;5052166;28;20235;-77
2023/04/16 03:15:02;;;;;;;0.70;0.70;;;;;;;12.51;100.00;99642.75;5053063;28;20253;-80
2023/04/16 03:17:29;;;;;;;0.68;0.68;;;;;;;12.42;100.00;99642.72;5052621;28;20192;-78
2023/04/16 03:19:56;;;;;;;0.60;0.60;;;;;;;12.34;100.00;99642.72;5053307;28;20254;-79
2023/04/16 03:22:24;;;;;;;0.70;0.70;;;;;;;12.30;100.00;99622.81;5046863;28;20192;-79
2023/04/16 03:24:51;;;;;;;0.90;0.90;;;;;;;12.27;100.00;99629.75;5053134;28;20214;-78
2023/04/16 03:27:18;;;;;;;0.70;0.70;;;;;;;12.27;100.00;99630.59;5053414;28;20239;-75
2023/04/16 03:29:45;;;;;;;0.70;0.70;;;;;;;12.25;100.00;99621.94;5051163;28;20222;-77
2023/04/16 03:32:12;;;;;;;0.85;0.85;;;;;;;12.25;100.00;99624.53;5017672;28;20203;-77
2023/04/16 03:34:39;;;;;;;0.90;0.90;;;;;;;12.27;100.00;99622.78;5052367;28;20235;-79
2023/04/16 03:37:06;;;;;;;0.63;0.63;;;;;;;12.19;100.00;99632.34;5053159;28;20200;-77
2023/04/16 03:39:34;;;;;;;0.70;0.70;;;;;;;12.19;100.00;99618.47;5052434;28;20246;-76
2023/04/16 03:42:02;;;;;;;0.70;0.70;;;;;;;12.12;100.00;99628.00;5052526;28;20198;-77
2023/04/16 03:44:29;;;;;;;0.70;0.70;;;;;;;12.20;100.00;99628.84;5052359;28;20211;-77
2023/04/16 03:46:56;;;;;;;0.68;0.68;;;;;;;12.27;100.00;99629.75;5050638;28;20200;-77
2023/04/16 03:49:22;;;;;;;0.80;0.80;;;;;;;12.32;100.00;99634.06;5051645;28;20218;-78
2023/04/16 03:51:50;;;;;;;0.70;0.70;;;;;;;12.33;100.00;99643.63;5051331;28;20215;-77
2023/04/16 03:54:16;;;;;;;0.80;0.80;;;;;;;12.42;100.00;99641.00;5051935;28;20195;-79
2023/04/16 03:56:44;;;;;;;1.05;0.95;;;;;;;12.52;100.00;99639.25;5052979;28;20200;-76
2023/04/16 03:59:11;;;;;;;0.70;0.70;;;;;;;12.44;100.00;99638.41;5052530;28;20223;-77
2023/04/16 04:01:38;;;;;;;0.63;0.63;;;;;;;12.55;100.00;99648.81;5052878;28;20249;-77
2023/04/16 04:04:05;;;;;;;0.70;0.70;;;;;;;12.55;100.00;99641.03;5052211;28;20210;-75
2023/04/16 04:06:32;;;;;;;1.00;1.00;;;;;;;12.55;100.00;99633.22;5051634;28;20195;-77
2023/04/16 04:08:59;;;;;;;0.85;0.85;;;;;;;12.61;100.00;99635.81;5013884;28;20298;-77
2023/04/16 04:11:25;;;;;;;0.60;0.60;;;;;;;12.22;100.00;99559.56;5051680;28;20305;-77
2023/04/16 04:13:54;;;;;;;1.35;1.35;;;;;;;12.81;100.00;99647.06;5051539;28;20210;-79
2023/04/16 04:16:20;;;;;;;0.60;0.60;;;;;;;12.86;100.00;99650.53;5051885;28;20199;-79
2023/04/16 04:18:47;;;;;;;0.60;0.60;;;;;;;12.99;100.00;99640.97;5052175;28;20199;-78
2023/04/16 04:21:14;;;;;;;0.65;0.65;;;;;;;13.08;100.00;99652.25;5052312;28;20196;-76
2023/04/16 04:23:42;;;;;;;0.68;0.68;;;;;;;13.14;100.00;99660.06;5051858;28;20552;-74
2023/04/16 04:26:09;;;;;;;0.70;0.70;;;;;;;13.20;100.00;99665.25;5051498;28;20199;-75
2023/04/16 04:28:36;;;;;;;0.60;0.60;;;;;;;12.87;100.00;99582.03;5030151;28;20655;-74
2023/04/16 04:31:04;;;;;;;0.70;0.70;;;;;;;13.53;100.00;99658.19;5015404;28;20575;-75
2023/04/16 04:33:31;;;;;;;0.60;0.60;;;;;;;13.62;100.00;99668.59;5049316;28;20257;-75
2023/04/16 04:35:57;;;;;;;0.60;0.60;;;;;;;13.70;100.00;99666.81;5050225;28;20206;-75
2023/04/16 04:38:24;;;;;;;0.70;0.70;;;;;;;13.30;100.00;99590.59;5050779;28;20670;-79
2023/04/16 04:40:51;;;;;;;0.60;0.60;;;;;;;13.77;100.00;99674.59;5051263;28;20208;-77
2023/04/16 04:43:18;;;;;;;0.60;0.60;;;;;;;13.73;100.00;99674.63;5051483;28;20196;-75
2023/04/16 04:45:45;;;;;;;0.60;0.60;;;;;;;13.81;100.00;99680.66;5050583;28;20223;-73
2023/04/16 04:48:13;;;;;;;0.73;0.73;;;;;;;13.97;100.00;99666.69;5050676;28;20199;-73
2023/04/16 04:50:40;;;;;;;1.00;1.00;;;;;;;13.95;100.00;99678.00;5051276;28;20226;-73
2023/04/16 04:53:09;;;;;;;0.60;0.60;;;;;;;13.98;100.00;99684.06;5050150;28;20651;-73
2023/04/16 04:55:37;;;;;;;0.60;0.60;;;;;;;14.92;100.00;99657.31;5049717;28;20570;-73
2023/04/16 04:58:04;;;;;;;0.82;0.82;;;;;;;15.17;100.00;99674.47;5051044;28;20196;-73
2023/04/16 05:00:31;;;;;;;0.60;0.60;;;;;;;15.35;100.00;99687.34;5050674;28;20235;-76
2023/04/16 05:02:58;;;;;;;0.70;0.70;;;;;;;15.16;100.00;99667.50;5051122;28;20199;-77
2023/04/16 05:05:26;;;;;;;0.60;0.60;;;;;;;14.99;100.00;99669.44;5032061;28;20206;-76
2023/04/16 05:07:53;;;;;;;0.80;0.80;;;;;;;14.65;100.00;99694.09;5050815;28;20195;-76
2023/04/16 05:10:20;;;;;;;0.70;0.70;;;;;;;14.71;100.00;99684.47;5014002;28;20207;-75
2023/04/16 05:12:47;;;;;;;0.70;0.70;;;;;;;14.55;100.00;99666.34;5050801;28;20211;-73
2023/04/16 05:15:15;;;;;;;0.60;0.60;;;;;;;14.59;100.00;99688.94;5048228;28;20298;-70
2023/04/16 05:17:41;;;;;;;0.70;0.70;;;;;;;14.54;100.00;99680.25;5048227;28;20207;-75
2023/04/16 05:20:09;;;;;;;0.70;0.70;;;;;;;14.58;100.00;99689.81;5030085;28;20227;-76
2023/04/16 05:22:37;;;;;;;0.60;0.60;;;;;;;14.67;100.00;99687.97;5048827;28;20599;-71
2023/04/16 05:25:05;;;;;;;0.70;0.70;;;;;;;14.62;100.00;99694.13;5049669;28;20203;-76
2023/04/16 05:27:32;;;;;;;0.60;0.60;;;;;;;14.86;100.00;99699.13;5046464;28;20214;-78
2023/04/16 05:29:58;;;;;;;0.60;0.60;;;;;;;14.71;100.00;99691.44;5048173;28;20203;-76
2023/04/16 05:32:26;;;;;;;0.60;0.60;;;;;;;14.68;100.00;99700.16;5050015;28;20214;-78
2023/04/16 05:34:53;;;;;;;0.63;0.63;;;;;;;14.98;100.00;99701.66;5051029;28;20296;-77
2023/04/16 05:37:20;;;;;;;0.60;0.60;;;;;;;15.29;100.00;99703.09;5048907;28;20246;-77
2023/04/16 05:39:48;;;;;;;1.02;1.02;;;;;;;15.52;100.00;99707.25;5049533;28;20223;-75
2023/04/16 05:42:15;;;;;;;0.70;0.70;;;;;;;15.14;100.00;99698.00;5049939;28;20338;-77
2023/04/16 05:44:42;;;;;;;0.70;0.70;;;;;;;14.85;100.00;99698.28;5050026;28;20215;-77
2023/04/16 05:47:09;;;;;;;0.70;0.70;;;;;;;15.32;100.00;99696.97;5050956;28;20261;-76
2023/04/16 05:49:36;;;;;;;0.70;0.70;;;;;;;15.81;100.00;99684.22;5043705;28;20663;-77
2023/04/16 05:52:03;;;;;;;0.70;0.70;;;;;;;16.04;100.00;99692.66;5041009;28;20619;-75
2023/04/16 05:54:29;;;;;;;0.80;0.80;;;;;;;16.28;100.00;99692.31;5047448;28;20249;-78
2023/04/16 05:56:58;;;;;;;0.60;0.60;;;;;;;16.19;100.00;99682.00;5046874;28;20236;-73
2023/04/16 05:59:25;;;;;;;0.63;0.63;;;;;;;15.76;100.00;99692.16;5013264;28;20211;-76
2023/04/16 06:01:51;;;;;;;0.60;0.60;;;;;;;15.35;100.00;99687.34;5048525;28;20750;-74
2023/04/16 06:04:18;;;;;;;0.70;0.70;;;;;;;15.44;100.00;99694.22;5029079;28;20202;-74
2023/04/16 06:06:45;;;;;;;0.70;0.70;;;;;;;15.24;100.00;99680.50;5048102;28;20203;-74
2023/04/16 06:09:12;;;;;;;0.60;0.60;;;;;;;15.08;100.00;99690.25;5014338;28;20199;-73
2023/04/16 06:11:38;;;;;;;0.60;0.60;;;;;;;14.99;100.00;99695.53;5048094;28;20230;-73
2023/04/16 06:14:07;;;;;;;0.70;0.70;;;;;;;14.94;100.00;99672.97;5046253;28;20238;-74
2023/04/16 06:16:33;;;;;;;0.60;0.60;;;;;;;15.01;100.00;99699.00;5051539;28;20223;-74
2023/04/16 06:19:00;;;;;;;0.98;0.98;;;;;;;15.27;100.00;99694.38;5055340;28;20671;-75
2023/04/16 06:21:28;;;;;;;0.60;0.60;;;;;;;15.03;100.00;99692.03;5055045;28;20238;-75
2023/04/16 06:23:55;;;;;;;0.70;0.70;;;;;;;15.02;100.00;99668.56;5053558;28;20604;-76
2023/04/16 06:26:22;;;;;;;0.60;0.60;;;;;;;15.34;100.00;99689.97;5043265;28;20708;-76
2023/04/16 06:28:49;;;;;;;0.70;0.70;;;;;;;15.66;100.00;99689.66;5018586;28;20214;-75
2023/04/16 06:31:17;;;;;;;0.70;0.70;;;;;;;15.93;100.00;99677.97;5052574;28;20219;-75
2023/04/16 06:33:44;;;;;;;0.60;0.60;;;;;;;16.26;100.00;99688.00;5050159;28;20206;-78
2023/04/16 06:36:11;;;;;;;0.80;0.80;;;;;;;16.14;100.00;99669.84;5048040;28;20200;-73
2023/04/16 06:38:38;;;;;;;0.60;0.60;;;;;;;16.48;100.00;99675.47;5053011;28;20199;-75
2023/04/16 06:41:05;;;;;;;0.60;0.60;;;;;;;16.40;100.00;99677.31;5051778;28;20242;-72
2023/04/16 06:43:32;;;;;;;0.95;0.93;;;;;;;16.97;100.00;99694.75;5053386;28;20219;-77
2023/04/16 06:45:59;;;;;;;0.60;0.60;;;;;;;17.13;100.00;99695.31;5050560;28;20286;-76
2023/04/16 06:48:27;;;;;;;0.60;0.60;;;;;;;17.01;91.94;99691.19;5051290;28;20279;-76
2023/04/16 06:50:55;;;;;;;0.60;0.60;;;;;;;17.19;88.52;99690.84;5045912;28;20200;-77
2023/04/16 06:53:22;;;;;;;0.63;0.63;;;;;;;17.84;86.72;99713.22;5048192;28;20243;-78
2023/04/16 06:55:48;;;;;;;0.60;0.60;;;;;;;17.32;83.31;99718.56;5052205;28;20211;-75
2023/04/16 06:58:15;;;;;;;0.52;0.52;;;;;;;17.90;81.14;99712.22;5034517;28;20207;-72
2023/04/16 07:00:42;;;;;;;0.60;0.60;;;;;;;18.21;81.14;99721.19;5053314;28;20625;-76
2023/04/16 07:03:09;;;;;;;0.60;0.60;;;;;;;18.42;77.55;99713.72;5053062;28;20207;-72
2023/04/16 07:05:37;;;;;;;0.80;0.80;;;;;;;18.72;77.50;99723.56;5047283;28;20242;-74
2023/04/16 07:08:04;;;;;;;0.60;0.60;;;;;;;18.66;75.49;99721.06;5050990;28;20199;-75
2023/04/16 07:10:31;;;;;;;0.60;0.60;;;;;;;18.37;75.10;99713.81;5052263;28;20231;-75
2023/04/16 07:13:00;;;;;;;0.60;0.60;;;;;;;18.66;73.34;99721.06;5050318;28;20203;-76
2023/04/16 07:15:27;;;;;;;0.60;0.60;;;;;;;18.67;72.10;99712.28;5048909;28;20547;-77
2023/04/16 07:17:54;;;;;;;0.60;0.60;;;;;;;19.07;71.09;99728.81;5047738;28;20266;-76
2023/04/16 07:20:21;;;;;;;0.50;0.50;;;;;;;18.97;69.78;99719.44;5039147;28;20290;-77
2023/04/16 07:22:49;;;;;;;0.60;0.60;;;;;;;19.06;74.06;99732.34;5050606;28;20227;-78
2023/04/16 07:25:16;;;;;;;0.70;0.70;;;;;;;19.00;78.60;99727.25;5052370;28;20208;-77
2023/04/16 07:27:42;;;;;;;0.60;0.60;;;;;;;18.99;80.77;99729.88;5032523;28;20207;-80
2023/04/16 07:30:10;;;;;;;0.60;0.60;;;;;;;19.00;81.85;99723.75;5050518;28;20225;-80
2023/04/16 07:32:36;;;;;;;0.70;0.70;;;;;;;19.15;80.85;99734.75;5017156;28;20666;-77
2023/04/16 07:35:07;;;;;;;0.60;0.60;;;;;;;19.58;78.13;99744.16;5029925;28;20244;-73
2023/04/16 07:37:34;;;;;;;0.60;0.60;;;;;;;19.37;71.28;99718.41;5047755;28;20207;-77
2023/04/16 07:40:03;;;;;;;0.60;0.60;;;;;;;19.35;72.35;99733.34;5018373;28;20211;-79
2023/04/16 07:42:29;;;;;;;1.00;1.00;;;;;;;18.99;68.65;99719.38;5048281;28;20290;-76
2023/04/16 07:44:56;;;;;;;0.60;0.60;;;;;;;19.28;73.45;99667.78;5045904;28;20235;-77
2023/04/16 07:47:25;;;;;;;0.60;0.60;;;;;;;20.12;65.86;99732.06;5047273;28;20203;-76
2023/04/16 07:49:52;;;;;;;0.60;0.60;;;;;;;19.66;64.42;99713.25;5051540;28;20276;-77
2023/04/16 07:52:18;;;;;;;0.60;0.60;;;;;;;19.60;65.45;99723.94;5051480;28;20195;-75
2023/04/16 07:54:45;;;;;;;0.60;0.60;;;;;;;19.16;63.86;99685.66;5047356;28;20203;-79
2023/04/16 07:57:15;;;;;;;0.60;0.60;;;;;;;19.87;71.54;99715.25;5045740;28;20566;-78
2023/04/16 07:59:42;;;;;;;0.60;0.60;;;;;;;19.63;64.18;99729.13;5045246;28;20228;-77
2023/04/16 08:02:13;;;;;;;0.60;0.60;;;;;;;20.20;63.80;99727.44;5026728;28;20247;-77
2023/04/16 08:04:40;;;;;;;9.02;1.10;;;;;;;19.82;63.86;99732.97;5050519;28;20707;-74
2023/04/16 08:07:07;;;;;;;0.65;0.65;;;;;;;20.68;61.66;99730.41;5015168;28;20597;-76
2023/04/16 08:09:34;;;;;;;0.60;0.60;;;;;;;21.33;60.17;99726.53;5049786;28;20191;-76
2023/04/16 08:12:02;;;;;;;0.70;0.70;;;;;;;21.53;57.82;99726.69;5030463;28;20246;-78
2023/04/16 08:14:30;;;;;;;0.70;0.70;;;;;;;21.33;58.51;99721.25;5049063;28;20199;-78
2023/04/16 08:16:57;;;;;;;0.70;0.70;;;;;;;21.58;57.15;99728.22;5045844;28;20234;-77
2023/04/16 08:19:24;;;;;;;0.60;0.60;;;;;;;22.17;55.59;99719.94;5051148;28;20206;-79
2023/04/16 08:21:51;;;;;;;0.60;0.60;;;;;;;20.61;58.53;99704.28;5043765;28;20219;-78
2023/04/16 08:24:18;;;;;;;0.70;0.70;;;;;;;21.18;57.75;99714.72;5045922;28;20674;-79
2023/04/16 08:26:44;;;;;;;0.60;0.60;;;;;;;20.58;59.31;99709.66;5041693;28;20200;-71
2023/04/16 08:29:11;;;;;;;0.60;0.60;;;;;;;19.60;62.66;99687.13;5018386;28;20214;-77
2023/04/16 08:31:40;;;;;;;0.70;0.70;;;;;;;20.19;60.81;99712.56;5049757;28;20740;-76
2023/04/16 08:34:06;;;;;;;0.70;0.70;;;;;;;20.30;61.55;99720.16;5043465;28;20199;-77
2023/04/16 08:36:33;;;;;;;0.68;0.68;;;;;;;20.25;61.91;99716.78;5048767;28;20204;-76
2023/04/16 08:39:00;;;;;;;0.60;0.60;;;;;;;20.81;60.92;99722.94;5049182;28;20207;-73
2023/04/16 08:41:30;;;;;;;0.55;0.55;;;;;;;20.78;62.02;99721.28;5045964;28;20277;-72
2023/04/16 08:44:02;;;;;;;0.60;0.60;;;;;;;21.43;59.97;99720.88;5050508;28;20359;-72
2023/04/16 08:46:29;;;;;;;0.60;0.60;;;;;;;21.84;58.27;99708.81;5050437;28;20651;-72
2023/04/16 08:49:00;;;;;;;0.60;0.60;;;;;;;21.79;57.41;99697.59;5047063;28;20321;-73
2023/04/16 08:51:33;;;;;;;0.70;0.70;;;;;;;22.30;56.50;99710.63;5024244;28;20231;-72
2023/04/16 08:54:04;;;;;;;0.85;0.85;;;;;;;22.37;55.94;99708.59;5050821;28;20575;-78
2023/04/16 08:56:32;;;;;;;0.60;0.60;;;;;;;22.51;55.33;99712.44;5050787;28;20223;-79
2023/04/16 08:59:00;;;;;;;0.70;0.70;;;;;;;22.65;55.42;99706.63;5050761;28;20203;-78
2023/04/16 09:01:28;;;;;;;1.15;1.15;;;;;;;22.09;57.54;99696.47;5050383;28;20238;-76
2023/04/16 09:03:55;;;;;;;0.82;0.82;;;;;;;21.99;58.11;99700.38;5050826;28;20204;-77
2023/04/16 09:06:23;;;;;;;0.90;0.90;;;;;;;21.99;56.87;99696.88;5051713;28;20677;-78
2023/04/16 09:08:52;;;;;;;0.60;0.60;;;;;;;21.82;57.84;99680.78;5048652;28;20206;-73
2023/04/16 09:11:19;;;;;;;1.02;1.02;;;;;;;21.62;59.59;99689.41;5050664;28;20280;-77
2023/04/16 09:13:47;;;;;;;0.60;0.60;;;;;;;21.36;60.10;99693.00;5043701;28;20674;-77
2023/04/16 09:16:15;;;;;;;0.70;0.70;;;;;;;21.27;59.82;99694.16;5050347;28;20218;-77
2023/04/16 09:18:42;;;;;;;0.60;0.60;;;;;;;21.38;60.12;99661.28;5048363;28;20199;-79
2023/04/16 09:21:10;;;;;;;0.60;0.60;;;;;;;21.41;60.68;99687.53;5048661;28;20780;-79
2023/04/16 09:23:38;;;;;;;0.60;0.60;;;;;;;21.27;60.25;99686.25;5048206;28;20219;-79
2023/04/16 09:26:06;;;;;;;0.60;0.60;;;;;;;21.04;62.81;99675.63;5049630;28;20393;-78
2023/04/16 09:28:39;;;;;;;0.60;0.60;;;;;;;21.49;61.65;99659.13;5047198;28;20808;-78
2023/04/16 09:31:13;;;;;;;0.60;0.60;;;;;;;21.88;60.81;99680.53;5050946;28;20226;-80
2023/04/16 09:33:40;;;;;;;0.82;0.82;;;;;;;21.60;57.09;99681.56;5050190;28;20230;-77
2023/04/16 09:36:07;;;;;;;0.93;0.93;;;;;;;21.59;56.08;99679.84;5047662;28;20656;-80
2023/04/16 09:38:48;;;;;;;0.57;0.57;;;;;;;21.79;56.37;99686.16;5050280;28;20235;-76
2023/04/16 09:41:16;;;;;;;0.60;0.60;;;;;;;22.11;55.49;99675.28;5050663;28;20229;-76
2023/04/16 09:43:54;;;;;;;0.50;0.50;;;;;;;22.31;54.54;99674.50;5049464;28;20565;-77
2023/04/16 09:46:21;;;;;;;0.60;0.60;;;;;;;22.51;56.71;99671.97;5048204;28;20290;-78
2023/04/16 09:48:48;;;;;;;0.60;0.60;;;;;;;21.80;56.77;99674.69;5048303;28;20207;-79
2023/04/16 09:51:14;;;;;;;0.60;0.60;;;;;;;21.89;57.64;99653.22;5029383;28;20698;-79
2023/04/16 09:53:41;;;;;;;0.70;0.70;;;;;;;22.14;57.92;99662.84;5013035;28;20195;-78
2023/04/16 09:56:10;;;;;;;0.70;0.70;;;;;;;22.51;58.24;99645.53;5050714;28;20671;-73
2023/04/16 09:58:37;;;;;;;0.60;0.60;;;;;;;22.94;56.08;99669.28;5049436;28;20203;-76
2023/04/16 10:01:07;;;;;;;0.57;0.57;;;;;;;23.22;55.57;99659.25;5049187;28;20310;-76
2023/04/16 10:03:36;;;;;;;0.80;0.80;;;;;;;22.61;56.79;99657.44;5051010;28;20274;-79
2023/04/16 10:06:09;;;;;;;0.77;0.77;;;;;;;22.16;56.81;99650.41;5049933;28;20206;-81
2023/04/16 10:08:36;;;;;;;0.60;0.60;;;;;;;21.77;57.67;99578.00;5050572;28;20285;-74
2023/04/16 10:11:03;;;;;;;0.60;0.60;;;;;;;22.20;57.71;99652.03;5050043;28;20257;-78
2023/04/16 10:13:32;;;;;;;0.80;0.80;;;;;;;22.72;56.41;99655.25;5013713;28;20219;-78
2023/04/16 10:15:59;;;;;;;1.85;1.35;;;;;;;22.52;55.85;99644.59;5031302;28;20218;-74
2023/04/16 10:18:27;;;;;;;0.70;0.70;;;;;;;23.08;55.48;99643.09;5030532;28;20262;-72
2023/04/16 10:20:54;;;;;;;0.90;0.90;;;;;;;23.09;56.08;99650.13;5032547;28;20204;-79
2023/04/16 10:23:22;;;;;;;0.50;0.50;;;;;;;23.39;54.31;99641.78;5049839;28;20286;-71
2023/04/16 10:25:49;;;;;;;0.60;0.60;;;;;;;23.84;52.12;99636.22;5047650;28;20191;-77
2023/04/16 10:28:16;;;;;;;0.60;0.60;;;;;;;23.97;50.90;99630.28;5050091;28;20200;-76
2023/04/16 10:30:51;;;;;;;0.80;0.80;;;;;;;23.02;51.54;99557.88;5047253;28;20204;-76
2023/04/16 10:33:21;;;;;;;0.70;0.70;;;;;;;23.55;51.82;99626.97;5050537;28;20348;-77
2023/04/16 10:35:48;;;;;;;0.70;0.70;;;;;;;23.73;51.44;99630.56;5046757;28;20228;-78
2023/04/16 10:38:28;;;;;;;0.60;0.60;;;;;;;23.69;52.18;99621.91;5043498;28;20235;-77
2023/04/16 10:41:03;;;;;;;0.70;0.70;;;;;;;24.23;52.22;99625.56;5013382;28;20227;-71
2023/04/16 10:43:30;;;;;;;0.60;0.60;;;;;;;24.47;50.32;99627.06;5045110;28;20203;-75
2023/04/16 10:46:18;;;;;;;0.70;0.70;;;;;;;24.89;49.60;99618.78;5012047;28;20204;-76
2023/04/16 10:48:45;;;;;;;0.70;0.70;;;;;;;24.45;49.60;99594.44;5046063;28;20229;-76
2023/04/16 10:51:24;;;;;;;0.60;0.60;;;;;;;24.37;51.72;99586.00;5049952;28;20212;-72
2023/04/16 10:53:51;;;;;;;0.70;0.70;;;;;;;24.66;50.35;99611.94;5032110;28;20257;-74
2023/04/16 10:56:23;;;;;;;0.73;0.73;;;;;;;24.14;50.05;99603.91;5048060;28;20215;-74
2023/04/16 10:58:50;;;;;;;0.80;0.80;;;;;;;24.03;49.41;99616.75;5048992;28;20212;-73
2023/04/16 11:01:18;;;;;;;0.60;0.60;;;;;;;23.83;50.18;99610.69;5031271;28;20284;-74
2023/04/16 11:03:47;;;;;;;0.77;0.77;;;;;;;23.37;50.48;99551.88;5052205;28;20282;-72
2023/04/16 11:06:16;;;;;;;0.50;0.50;;;;;;;23.83;50.35;99608.88;5053009;28;20637;-73
2023/04/16 11:08:46;;;;;;;0.60;0.60;;;;;;;24.06;50.12;99610.47;5043047;28;20206;-79
2023/04/16 11:11:13;;;;;;;0.60;0.60;;;;;;;24.14;49.40;99611.84;5031100;28;20242;-77
2023/04/16 11:13:43;;;;;;;0.60;0.60;;;;;;;24.44;49.35;99603.31;5053683;28;20211;-77
2023/04/16 11:16:10;;;;;;;0.60;0.60;;;;;;;23.64;48.63;99569.19;5053692;28;20204;-76
2023/04/16 11:18:40;;;;;;;0.70;0.70;;;;;;;24.09;49.42;99581.16;5016505;28;20200;-77
2023/04/16 11:21:09;;;;;;;0.93;0.93;;;;;;;23.84;49.42;99594.72;5053644;28;20702;-81
2023/04/16 11:23:49;;;;;;;0.50;0.50;;;;;;;24.35;48.46;99583.44;5057770;28;20230;-79
2023/04/16 11:26:29;;;;;;;0.60;0.60;;;;;;;24.64;48.00;99598.78;5053101;28;20206;-77
2023/04/16 11:28:57;;;;;;;0.80;0.80;;;;;;;24.64;48.12;99595.25;5049213;28;20235;-71
2023/04/16 11:31:25;;;;;;;0.50;0.50;;;;;;;24.86;46.92;99603.88;5046773;28;20213;-78